Time;durP1;ratioP1;P1;durP2;ratioP2;P2;SDS_P1;SDS_P2;PMS_P1;PMS_P2;Temp;Humidity;BMP_temperature;BMP_pressure;BME280_temperature;BME280_humidity;BME280_pressure;Samples;Min_cycle;Max_cycle;Signal;HPM_P1;HPM_P2
2022/07/13 00:01:44;;;;;;;6.35;3.85;;;;;;;;;;4896484;29;20036;-64
2022/07/13 00:04:10;;;;;;;6.38;3.80;;;;;;;;;;4891287;29;20070;-65
2022/07/13 00:06:35;;;;;;;7.40;4.13;;;;;;;;;;4896369;29;20381;-64
2022/07/13 00:09:00;;;;;;;7.15;4.30;;;;;;;;;;4883156;29;20037;-65
2022/07/13 00:11:26;;;;;;;7.10;4.30;;;;;;;;;;4877887;29;20029;-64
2022/07/13 00:13:51;;;;;;;6.70;4.10;;;;;;;;;;4860853;29;20457;-64
2022/07/13 00:16:16;;;;;;;5.32;3.92;;;;;;;;;;4875851;29;20033;-64
2022/07/13 00:18:42;;;;;;;5.55;4.15;;;;;;;;;;4877767;29;20390;-64
2022/07/13 00:21:08;;;;;;;10.95;4.30;;;;;;;;;;4892766;29;20086;-64
2022/07/13 00:23:33;;;;;;;8.05;4.38;;;;;;;;;;4892138;29;20028;-64
2022/07/13 00:25:59;;;;;;;6.72;4.30;;;;;;;;;;4878965;29;20045;-64
2022/07/13 00:28:24;;;;;;;5.85;4.22;;;;;;;;;;4878938;29;20116;-64
2022/07/13 00:30:49;;;;;;;5.88;3.83;;;;;;;;;;4880142;29;20398;-65
2022/07/13 00:33:15;;;;;;;6.13;4.05;;;;;;;;;;4879192;29;20029;-65
2022/07/13 00:35:40;;;;;;;5.85;4.20;;;;;;;;;;4877454;29;20449;-65
2022/07/13 00:38:05;;;;;;;6.43;4.22;;;;;;;;;;4880313;29;20549;-64
2022/07/13 00:40:31;;;;;;;6.28;4.05;;;;;;;;;;4881623;29;20044;-65
2022/07/13 00:42:57;;;;;;;6.07;4.40;;;;;;;;;;4881194;29;20025;-64
2022/07/13 00:45:23;;;;;;;10.45;4.55;;;;;;;;;;4889618;29;20045;-64
2022/07/13 00:47:49;;;;;;;7.03;4.40;;;;;;;;;;4899545;29;20123;-64
2022/07/13 00:50:14;;;;;;;6.45;4.43;;;;;;;;;;4879616;29;20068;-64
2022/07/13 00:52:40;;;;;;;8.20;5.05;;;;;;;;;;4879787;29;20203;-63
2022/07/13 00:55:07;;;;;;;9.25;5.53;;;;;;;;;;4877574;29;20045;-65
2022/07/13 00:57:37;;;;;;;9.70;5.60;;;;;;;;;;4877535;29;20547;-64
2022/07/13 01:00:06;;;;;;;12.20;6.53;;;;;;;;;;4883704;29;20029;-64
2022/07/13 01:02:32;;;;;;;10.55;7.82;;;;;;;;;;4877518;29;20041;-65
2022/07/13 01:05:00;;;;;;;13.23;9.30;;;;;;;;;;4876076;29;20138;-66
2022/07/13 01:07:25;;;;;;;12.82;9.25;;;;;;;;;;4887144;29;20058;-66
2022/07/13 01:09:50;;;;;;;15.90;10.40;;;;;;;;;;4892378;29;20115;-66
2022/07/13 01:12:16;;;;;;;14.23;10.45;;;;;;;;;;4885658;29;20040;-66
2022/07/13 01:14:42;;;;;;;14.82;10.68;;;;;;;;;;4887752;29;20531;-66
2022/07/13 01:17:08;;;;;;;15.25;10.93;;;;;;;;;;4881126;29;20040;-66
2022/07/13 01:19:35;;;;;;;15.30;11.27;;;;;;;;;;4879675;29;20104;-66
2022/07/13 01:22:02;;;;;;;13.55;11.27;;;;;;;;;;4879460;29;20403;-66
2022/07/13 01:24:29;;;;;;;16.52;10.93;;;;;;;;;;4879307;29;20072;-66
2022/07/13 01:26:55;;;;;;;16.35;11.60;;;;;;;;;;4878433;29;20101;-65
2022/07/13 01:29:20;;;;;;;15.90;11.63;;;;;;;;;;4876759;29;20309;-66
2022/07/13 01:31:46;;;;;;;15.25;11.57;;;;;;;;;;4879526;29;20029;-65
2022/07/13 01:34:11;;;;;;;15.25;11.57;;;;;;;;;;4878216;29;20479;-66
2022/07/13 01:36:37;;;;;;;17.60;11.25;;;;;;;;;;4862286;29;20067;-66
2022/07/13 01:39:05;;;;;;;15.20;11.45;;;;;;;;;;4881682;29;20041;-66
2022/07/13 01:41:30;;;;;;;15.85;12.35;;;;;;;;;;4878906;29;20040;-66
2022/07/13 01:43:57;;;;;;;16.60;12.40;;;;;;;;;;4879769;29;20045;-67
2022/07/13 01:46:26;;;;;;;14.70;12.05;;;;;;;;;;4898121;29;20032;-67
2022/07/13 01:48:53;;;;;;;22.52;12.30;;;;;;;;;;4883421;29;20053;-67
2022/07/13 01:51:19;;;;;;;18.23;11.98;;;;;;;;;;4877884;29;20191;-67
2022/07/13 01:53:44;;;;;;;17.42;12.68;;;;;;;;;;4878088;29;20235;-68
2022/07/13 01:56:09;;;;;;;17.98;13.18;;;;;;;;;;4878124;29;20044;-67
2022/07/13 01:58:35;;;;;;;19.42;13.60;;;;;;;;;;4878157;29;20595;-67
2022/07/13 02:01:00;;;;;;;18.85;14.07;;;;;;;;;;4879160;29;20041;-67
2022/07/13 02:03:29;;;;;;;19.95;14.15;;;;;;;;;;4885950;29;20141;-67
2022/07/13 02:05:55;;;;;;;17.63;13.75;;;;;;;;;;4896469;29;20040;-67
2022/07/13 02:08:20;;;;;;;18.73;14.10;;;;;;;;;;4897192;29;20040;-67
2022/07/13 02:10:46;;;;;;;19.00;14.35;;;;;;;;;;4886015;29;20112;-68
2022/07/13 02:13:11;;;;;;;19.33;14.38;;;;;;;;;;4876619;29;20029;-67
2022/07/13 02:15:37;;;;;;;19.02;15.40;;;;;;;;;;4878338;29;20040;-67
2022/07/13 02:18:03;;;;;;;19.85;15.50;;;;;;;;;;4882943;29;20120;-66
2022/07/13 02:20:28;;;;;;;20.95;15.13;;;;;;;;;;4887238;29;20249;-67
2022/07/13 02:22:54;;;;;;;23.73;15.68;;;;;;;;;;4886108;29;20040;-67
2022/07/13 02:25:20;;;;;;;18.83;15.55;;;;;;;;;;4877944;29;20048;-67
2022/07/13 02:27:46;;;;;;;20.45;14.85;;;;;;;;;;4879675;29;20079;-66
2022/07/13 02:30:13;;;;;;;18.95;15.02;;;;;;;;;;4879319;29;20036;-66
2022/07/13 02:32:41;;;;;;;20.58;15.07;;;;;;;;;;4882560;29;20450;-66
2022/07/13 02:35:07;;;;;;;21.75;14.55;;;;;;;;;;4877043;29;20490;-65
2022/07/13 02:37:32;;;;;;;19.70;14.70;;;;;;;;;;4882766;29;20057;-66
2022/07/13 02:39:58;;;;;;;17.88;14.10;;;;;;;;;;4886020;29;20390;-66
2022/07/13 02:42:24;;;;;;;18.95;15.23;;;;;;;;;;4876556;29;20037;-66
2022/07/13 02:44:51;;;;;;;20.83;15.10;;;;;;;;;;4877436;29;20093;-66
2022/07/13 02:47:16;;;;;;;20.48;15.43;;;;;;;;;;4874143;29;20045;-67
2022/07/13 02:49:41;;;;;;;23.20;15.68;;;;;;;;;;4892695;29;20036;-66
2022/07/13 02:52:07;;;;;;;20.17;15.25;;;;;;;;;;4877539;29;20049;-65
2022/07/13 02:54:32;;;;;;;20.30;15.38;;;;;;;;;;4886399;29;20466;-66
2022/07/13 02:56:58;;;;;;;22.15;15.07;;;;;;;;;;4886145;29;20064;-67
2022/07/13 02:59:24;;;;;;;21.25;15.68;;;;;;;;;;4876169;29;20097;-66
2022/07/13 03:01:49;;;;;;;27.15;16.17;;;;;;;;;;4881917;29;20070;-66
2022/07/13 03:04:15;;;;;;;19.75;16.05;;;;;;;;;;4882465;29;20092;-66
2022/07/13 03:06:40;;;;;;;20.20;15.63;;;;;;;;;;4893462;29;20093;-67
2022/07/13 03:09:05;;;;;;;19.77;15.40;;;;;;;;;;4882992;29;20039;-68
2022/07/13 03:11:31;;;;;;;20.98;15.55;;;;;;;;;;4879339;29;20049;-67
2022/07/13 03:13:56;;;;;;;18.25;14.98;;;;;;;;;;4876215;29;20037;-67
2022/07/13 03:16:22;;;;;;;19.15;14.95;;;;;;;;;;4893628;29;20187;-67
2022/07/13 03:18:47;;;;;;;18.85;14.48;;;;;;;;;;4891961;29;20458;-68
2022/07/13 03:21:12;;;;;;;22.35;14.50;;;;;;;;;;4876658;29;20060;-66
2022/07/13 03:23:38;;;;;;;19.55;14.52;;;;;;;;;;4879450;29;20047;-67
2022/07/13 03:26:03;;;;;;;17.73;14.50;;;;;;;;;;4896703;29;20462;-68
2022/07/13 03:28:29;;;;;;;17.75;14.35;;;;;;;;;;4884050;29;20029;-67
2022/07/13 03:30:54;;;;;;;20.48;14.02;;;;;;;;;;4877486;29;20029;-67
2022/07/13 03:33:20;;;;;;;18.20;14.40;;;;;;;;;;4873546;29;20065;-67
2022/07/13 03:35:45;;;;;;;17.60;13.70;;;;;;;;;;4876970;29;20044;-67
2022/07/13 03:38:11;;;;;;;16.45;13.73;;;;;;;;;;4883295;29;20036;-65
2022/07/13 03:40:36;;;;;;;18.23;13.82;;;;;;;;;;4887172;29;20466;-68
2022/07/13 03:43:02;;;;;;;16.58;13.70;;;;;;;;;;4875951;29;20382;-69
2022/07/13 03:45:27;;;;;;;17.75;13.43;;;;;;;;;;4895839;29;20111;-67
2022/07/13 03:47:52;;;;;;;19.17;13.35;;;;;;;;;;4880918;29;20033;-67
2022/07/13 03:50:18;;;;;;;16.65;12.27;;;;;;;;;;4876232;29;20175;-67
2022/07/13 03:52:44;;;;;;;15.00;12.10;;;;;;;;;;4876846;29;20483;-69
2022/07/13 03:55:09;;;;;;;15.65;11.40;;;;;;;;;;4876342;29;20029;-66
2022/07/13 03:57:35;;;;;;;16.05;12.38;;;;;;;;;;4885069;29;20037;-68
2022/07/13 04:00:00;;;;;;;15.88;11.93;;;;;;;;;;4889350;29;20029;-68
2022/07/13 04:02:26;;;;;;;17.55;11.93;;;;;;;;;;4876578;29;20033;-68
2022/07/13 04:04:52;;;;;;;14.18;10.95;;;;;;;;;;4864701;29;20033;-68
2022/07/13 04:07:17;;;;;;;15.68;11.65;;;;;;;;;;4877753;29;20390;-67
2022/07/13 04:09:42;;;;;;;14.65;11.55;;;;;;;;;;4872696;29;20086;-66
2022/07/13 04:12:08;;;;;;;15.93;10.98;;;;;;;;;;4876374;29;20402;-68
2022/07/13 04:14:33;;;;;;;13.45;10.88;;;;;;;;;;4876854;29;20031;-68
2022/07/13 04:16:58;;;;;;;13.80;10.52;;;;;;;;;;4880007;29;20032;-69
2022/07/13 04:19:27;;;;;;;13.40;10.15;;;;;;;;;;4888073;29;20061;-68
2022/07/13 04:21:52;;;;;;;11.57;9.90;;;;;;;;;;4856568;29;20398;-68
2022/07/13 04:24:18;;;;;;;12.40;10.30;;;;;;;;;;4876933;29;20037;-67
2022/07/13 04:26:43;;;;;;;14.77;10.23;;;;;;;;;;4868067;29;20040;-68
2022/07/13 04:29:08;;;;;;;11.90;9.40;;;;;;;;;;4875247;29;20039;-68
2022/07/13 04:31:34;;;;;;;13.73;10.32;;;;;;;;;;4881230;29;20114;-67
2022/07/13 04:33:59;;;;;;;14.60;10.90;;;;;;;;;;4889652;29;20466;-67
2022/07/13 04:36:25;;;;;;;13.48;10.50;;;;;;;;;;4874312;29;20045;-66
2022/07/13 04:38:50;;;;;;;12.07;10.40;;;;;;;;;;4876892;29;20029;-67
2022/07/13 04:41:15;;;;;;;14.93;9.57;;;;;;;;;;4873603;29;20412;-65
2022/07/13 04:43:45;;;;;;;12.00;9.63;;;;;;;;;;4876689;29;20059;-65
2022/07/13 04:46:11;;;;;;;12.45;9.50;;;;;;;;;;4876324;29;20120;-65
2022/07/13 04:48:36;;;;;;;11.52;9.10;;;;;;;;;;4876576;29;20466;-65
2022/07/13 04:51:02;;;;;;;11.00;8.85;;;;;;;;;;4882263;29;20034;-64
2022/07/13 04:53:27;;;;;;;10.38;8.80;;;;;;;;;;4893561;29;20409;-68
2022/07/13 04:55:52;;;;;;;11.13;8.98;;;;;;;;;;4883197;29;20029;-65
2022/07/13 04:58:18;;;;;;;11.50;8.00;;;;;;;;;;4880678;29;20045;-65
2022/07/13 05:00:43;;;;;;;10.68;7.50;;;;;;;;;;4894309;29;20066;-65
2022/07/13 05:03:09;;;;;;;11.25;7.78;;;;;;;;;;4890583;29;20029;-64
2022/07/13 05:05:34;;;;;;;9.10;7.15;;;;;;;;;;4858944;29;20488;-64
2022/07/13 05:08:00;;;;;;;8.98;6.82;;;;;;;;;;4895299;29;20029;-64
2022/07/13 05:10:25;;;;;;;11.43;6.78;;;;;;;;;;4897387;29;20034;-64
2022/07/13 05:12:51;;;;;;;12.10;6.68;;;;;;;;;;4869675;29;20045;-64
2022/07/13 05:15:17;;;;;;;15.05;7.40;;;;;;;;;;4879850;29;20041;-63
2022/07/13 05:17:43;;;;;;;9.85;6.38;;;;;;;;;;4886937;29;20041;-63
2022/07/13 05:20:09;;;;;;;12.52;6.60;;;;;;;;;;4878876;29;20037;-64
2022/07/13 05:22:35;;;;;;;10.88;6.65;;;;;;;;;;4888927;29;20644;-66
2022/07/13 05:25:00;;;;;;;13.73;7.03;;;;;;;;;;4883391;29;20041;-64
2022/07/13 05:27:26;;;;;;;12.75;6.68;;;;;;;;;;4886802;29;20025;-65
2022/07/13 05:29:51;;;;;;;9.18;6.20;;;;;;;;;;4888236;29;20041;-65
2022/07/13 05:32:17;;;;;;;11.80;6.40;;;;;;;;;;4888843;29;20390;-65
2022/07/13 05:34:43;;;;;;;9.85;6.78;;;;;;;;;;4892670;29;20036;-64
2022/07/13 05:37:09;;;;;;;9.05;6.10;;;;;;;;;;4898863;29;20458;-65
2022/07/13 05:39:34;;;;;;;7.72;5.90;;;;;;;;;;4882713;29;20512;-64
2022/07/13 05:42:00;;;;;;;14.43;6.05;;;;;;;;;;4878437;29;20029;-65
2022/07/13 05:44:25;;;;;;;8.10;5.82;;;;;;;;;;4890464;29;20112;-65
2022/07/13 05:46:51;;;;;;;9.27;5.85;;;;;;;;;;4885119;29;20040;-65
2022/07/13 05:49:16;;;;;;;8.68;6.10;;;;;;;;;;4879801;29;20037;-65
2022/07/13 05:51:42;;;;;;;8.95;5.60;;;;;;;;;;4860652;29;20497;-65
2022/07/13 05:54:07;;;;;;;9.40;6.03;;;;;;;;;;4861515;29;20054;-65
2022/07/13 05:56:33;;;;;;;7.28;5.60;;;;;;;;;;4871946;29;20097;-67
2022/07/13 05:58:59;;;;;;;7.68;5.75;;;;;;;;;;4885855;29;20048;-64
2022/07/13 06:01:25;;;;;;;10.00;5.18;;;;;;;;;;4885870;29;20111;-65
2022/07/13 06:03:50;;;;;;;7.10;5.25;;;;;;;;;;4886653;29;20104;-64
2022/07/13 06:06:16;;;;;;;8.15;5.20;;;;;;;;;;4880335;29;20040;-66
2022/07/13 06:08:42;;;;;;;8.32;4.88;;;;;;;;;;4890328;29;20044;-65
2022/07/13 06:11:07;;;;;;;9.80;4.90;;;;;;;;;;4880694;29;20060;-65
2022/07/13 06:13:32;;;;;;;7.18;4.97;;;;;;;;;;4879463;29;20033;-65
2022/07/13 06:15:59;;;;;;;7.82;4.55;;;;;;;;;;4879674;29;20509;-64
2022/07/13 06:18:25;;;;;;;8.05;4.40;;;;;;;;;;4888446;29;20040;-65
2022/07/13 06:20:50;;;;;;;7.32;4.03;;;;;;;;;;4878962;29;20037;-62
2022/07/13 06:23:16;;;;;;;6.47;3.70;;;;;;;;;;4886811;29;20084;-62
2022/07/13 06:25:45;;;;;;;8.55;3.60;;;;;;;;;;4888093;29;20045;-63
2022/07/13 06:28:11;;;;;;;6.40;3.33;;;;;;;;;;4878318;29;20439;-63
2022/07/13 06:30:36;;;;;;;6.97;3.33;;;;;;;;;;4877111;29;20033;-63
2022/07/13 06:33:02;;;;;;;7.90;3.42;;;;;;;;;;4881107;29;20033;-63
2022/07/13 06:35:28;;;;;;;5.47;2.95;;;;;;;;;;4877548;29;20037;-64
2022/07/13 06:37:54;;;;;;;4.60;2.80;;;;;;;;;;4878258;29;20032;-62
2022/07/13 06:40:19;;;;;;;6.07;3.00;;;;;;;;;;4891795;29;20036;-63
2022/07/13 06:42:45;;;;;;;7.53;3.13;;;;;;;;;;4897245;29;20045;-62
2022/07/13 06:45:10;;;;;;;5.72;2.88;;;;;;;;;;4884486;29;20033;-63
2022/07/13 06:47:36;;;;;;;5.53;2.83;;;;;;;;;;4876649;29;20036;-62
2022/07/13 06:50:02;;;;;;;7.57;2.90;;;;;;;;;;4878946;29;20032;-64
2022/07/13 06:52:28;;;;;;;4.43;2.75;;;;;;;;;;4884316;29;20048;-63
2022/07/13 06:54:53;;;;;;;4.68;2.45;;;;;;;;;;4897656;29;20120;-63
2022/07/13 06:57:18;;;;;;;5.68;2.80;;;;;;;;;;4891818;29;20086;-63
2022/07/13 06:59:44;;;;;;;7.43;2.78;;;;;;;;;;4880033;29;20044;-64
2022/07/13 07:02:09;;;;;;;6.03;2.38;;;;;;;;;;4892337;29;20102;-65
2022/07/13 07:04:35;;;;;;;6.00;2.70;;;;;;;;;;4893537;29;20029;-63
2022/07/13 07:07:02;;;;;;;4.40;2.50;;;;;;;;;;4872454;29;20132;-62
2022/07/13 07:09:27;;;;;;;4.80;2.30;;;;;;;;;;4878897;29;20106;-62
2022/07/13 07:11:53;;;;;;;8.88;2.45;;;;;;;;;;4895542;29;20067;-62
2022/07/13 07:14:18;;;;;;;3.97;2.30;;;;;;;;;;4879551;29;20459;-64
2022/07/13 07:16:43;;;;;;;11.40;2.55;;;;;;;;;;4890774;29;20136;-62
2022/07/13 07:19:09;;;;;;;5.80;2.40;;;;;;;;;;4875822;29;20037;-64
2022/07/13 07:21:35;;;;;;;5.45;2.40;;;;;;;;;;4876958;29;20051;-63
2022/07/13 07:24:01;;;;;;;6.30;2.60;;;;;;;;;;4878375;29;20473;-62
2022/07/13 07:26:26;;;;;;;7.13;2.50;;;;;;;;;;4879871;29;20133;-63
2022/07/13 07:28:52;;;;;;;4.80;2.35;;;;;;;;;;4877213;29;20113;-62
2022/07/13 07:31:26;;;;;;;4.05;2.50;;;;;;;;;;4894974;29;20059;-61
2022/07/13 07:33:52;;;;;;;6.47;2.50;;;;;;;;;;4895154;29;20116;-62
2022/07/13 07:36:17;;;;;;;5.15;2.60;;;;;;;;;;4896096;29;20123;-62
2022/07/13 07:38:43;;;;;;;5.05;2.40;;;;;;;;;;4876111;29;20049;-62
2022/07/13 07:41:10;;;;;;;5.22;2.50;;;;;;;;;;4877503;29;20064;-62
2022/07/13 07:43:36;;;;;;;4.47;2.47;;;;;;;;;;4885333;29;20037;-61
2022/07/13 07:46:02;;;;;;;3.92;2.53;;;;;;;;;;4881577;29;20041;-62
2022/07/13 07:48:27;;;;;;;3.90;2.50;;;;;;;;;;4877089;29;20041;-61
2022/07/13 07:50:52;;;;;;;5.75;2.50;;;;;;;;;;4878418;29;20037;-62
2022/07/13 07:53:18;;;;;;;5.68;2.90;;;;;;;;;;4885194;29;20225;-64
2022/07/13 07:55:43;;;;;;;8.38;2.90;;;;;;;;;;4895277;29;20748;-65
2022/07/13 07:58:08;;;;;;;7.45;2.50;;;;;;;;;;4890162;29;20075;-66
2022/07/13 08:00:34;;;;;;;4.47;2.60;;;;;;;;;;4880936;29;20033;-66
2022/07/13 08:03:03;;;;;;;5.55;2.70;;;;;;;;;;4879973;29;20076;-64
2022/07/13 08:05:29;;;;;;;7.25;2.60;;;;;;;;;;4878021;29;20528;-64
2022/07/13 08:07:56;;;;;;;4.47;2.55;;;;;;;;;;4880284;29;20073;-64
2022/07/13 08:10:21;;;;;;;6.07;2.50;;;;;;;;;;4877843;29;20123;-65
2022/07/13 08:12:46;;;;;;;3.22;2.47;;;;;;;;;;4881866;29;20189;-64
2022/07/13 08:15:12;;;;;;;5.45;2.40;;;;;;;;;;4896693;29;20036;-64
2022/07/13 08:17:39;;;;;;;5.30;2.83;;;;;;;;;;4881170;29;20039;-64
2022/07/13 08:20:05;;;;;;;6.40;2.60;;;;;;;;;;4869624;29;20049;-62
2022/07/13 08:22:31;;;;;;;6.82;2.65;;;;;;;;;;4878362;29;20029;-63
2022/07/13 08:24:56;;;;;;;9.18;3.13;;;;;;;;;;4888880;29;20554;-62
2022/07/13 08:27:22;;;;;;;5.22;2.58;;;;;;;;;;4891869;29;20155;-66
2022/07/13 08:29:47;;;;;;;6.72;2.72;;;;;;;;;;4890780;29;20553;-64
2022/07/13 08:32:13;;;;;;;5.68;2.60;;;;;;;;;;4895513;29;20442;-63
2022/07/13 08:40:08;;;;;;;9.23;2.85;;;;;;;;;;4877846;29;20202;-63
2022/07/13 08:42:35;;;;;;;6.43;2.67;;;;;;;;;;4878341;29;20088;-63
2022/07/13 08:45:01;;;;;;;8.75;2.95;;;;;;;;;;4881183;29;20415;-63
2022/07/13 08:47:29;;;;;;;7.25;3.03;;;;;;;;;;4879736;29;20036;-65
2022/07/13 08:50:06;;;;;;;6.30;2.72;;;;;;;;;;4881075;29;20379;-63
2022/07/13 08:52:34;;;;;;;10.07;3.03;;;;;;;;;;4878536;29;20049;-64
2022/07/13 08:55:03;;;;;;;7.30;2.53;;;;;;;;;;4881117;29;20043;-64
2022/07/13 08:57:29;;;;;;;6.05;2.78;;;;;;;;;;4880239;29;20033;-64
2022/07/13 08:59:54;;;;;;;5.25;2.65;;;;;;;;;;4880699;29;20076;-63
2022/07/13 09:05:44;;;;;;;5.47;2.83;;;;;;;;;;4861467;29;20065;-63
2022/07/13 09:08:12;;;;;;;5.20;2.70;;;;;;;;;;4898305;29;20111;-63
2022/07/13 09:10:57;;;;;;;10.65;3.17;;;;;;;;;;4897459;29;20032;-65
2022/07/13 09:13:39;;;;;;;5.05;2.83;;;;;;;;;;4862372;29;20535;-63
2022/07/13 09:16:14;;;;;;;8.50;3.20;;;;;;;;;;4862017;29;20468;-63
2022/07/13 09:18:40;;;;;;;5.03;2.95;;;;;;;;;;4861393;29;20047;-63
2022/07/13 09:21:06;;;;;;;8.35;2.90;;;;;;;;;;4864751;29;20029;-63
2022/07/13 09:23:32;;;;;;;8.93;2.55;;;;;;;;;;4879835;29;20060;-64
2022/07/13 09:25:57;;;;;;;4.07;2.72;;;;;;;;;;4880693;29;20075;-63
2022/07/13 09:28:24;;;;;;;7.50;2.70;;;;;;;;;;4880522;29;20044;-63
2022/07/13 09:30:50;;;;;;;6.40;2.90;;;;;;;;;;4878832;29;20036;-63
2022/07/13 09:33:31;;;;;;;8.23;2.90;;;;;;;;;;4880703;29;20032;-63
2022/07/13 09:35:56;;;;;;;4.93;2.50;;;;;;;;;;4863678;29;20048;-64
2022/07/13 09:38:42;;;;;;;6.68;2.78;;;;;;;;;;4880265;29;20470;-62
2022/07/13 09:41:23;;;;;;;6.97;2.80;;;;;;;;;;4879087;29;20068;-63
2022/07/13 09:47:00;;;;;;;5.78;2.63;;;;;;;;;;4879468;29;20109;-63
2022/07/13 09:49:30;;;;;;;5.40;2.55;;;;;;;;;;4879992;29;20044;-63
2022/07/13 09:51:59;;;;;;;8.02;2.38;;;;;;;;;;4878755;29;20033;-64
2022/07/13 09:54:29;;;;;;;5.00;2.43;;;;;;;;;;4879646;29;20036;-63
2022/07/13 09:56:59;;;;;;;;;;;;;;;;;;4863722;29;20420;-62
2022/07/13 09:59:25;;;;;;;4.72;2.50;;;;;;;;;;4880018;29;19918;-62
2022/07/13 10:01:52;;;;;;;5.43;2.80;;;;;;;;;;4878029;29;20811;-63
2022/07/13 10:04:18;;;;;;;5.32;2.78;;;;;;;;;;4879226;29;20049;-63
2022/07/13 10:06:43;;;;;;;4.22;2.50;;;;;;;;;;4879458;29;20029;-62
2022/07/13 10:09:10;;;;;;;5.63;2.67;;;;;;;;;;4879951;29;20471;-63
2022/07/13 10:11:35;;;;;;;7.28;2.55;;;;;;;;;;4878174;29;20040;-63
2022/07/13 10:14:06;;;;;;;4.63;2.70;;;;;;;;;;4879790;29;20093;-63
2022/07/13 10:16:32;;;;;;;6.35;2.55;;;;;;;;;;4879164;29;20044;-65
2022/07/13 10:19:04;;;;;;;5.20;2.63;;;;;;;;;;4879771;29;20075;-62
2022/07/13 10:22:11;;;;;;;5.15;2.60;;;;;;;;;;4878611;29;20123;-65
2022/07/13 10:24:37;;;;;;;9.80;2.55;;;;;;;;;;4855129;29;20132;-63
2022/07/13 10:27:26;;;;;;;7.22;2.58;;;;;;;;;;4879181;29;20465;-62
2022/07/13 10:29:54;;;;;;;5.80;2.38;;;;;;;;;;4878912;29;20029;-62
2022/07/13 10:32:26;;;;;;;5.10;2.60;;;;;;;;;;4878629;29;20036;-62
2022/07/13 10:35:05;;;;;;;6.90;2.65;;;;;;;;;;4877173;29;20029;-62
2022/07/13 10:37:57;;;;;;;6.43;2.30;;;;;;;;;;4879133;29;20037;-64
2022/07/13 10:40:24;;;;;;;7.20;2.40;;;;;;;;;;4878970;29;20470;-62
2022/07/13 10:43:04;;;;;;;8.00;2.13;;;;;;;;;;4861121;29;20236;-63
2022/07/13 10:45:32;;;;;;;3.45;2.30;;;;;;;;;;4878592;29;20037;-62
2022/07/13 10:47:58;;;;;;;4.40;2.47;;;;;;;;;;4879037;29;20081;-63
2022/07/13 10:50:26;;;;;;;6.95;2.50;;;;;;;;;;4879122;29;20095;-62
2022/07/13 10:52:52;;;;;;;8.35;2.38;;;;;;;;;;4877457;29;20070;-62
2022/07/13 10:55:30;;;;;;;2.67;1.90;;;;;;;;;;4878820;29;20037;-62
2022/07/13 10:57:56;;;;;;;3.42;1.95;;;;;;;;;;4878414;29;20044;-62
2022/07/13 11:00:37;;;;;;;5.80;2.00;;;;;;;;;;4878926;29;20521;-63
2022/07/13 11:03:06;;;;;;;4.38;2.00;;;;;;;;;;4877926;29;20049;-61
2022/07/13 11:05:36;;;;;;;4.78;2.20;;;;;;;;;;4877877;29;20099;-65
2022/07/13 11:08:16;;;;;;;5.53;1.90;;;;;;;;;;4879017;29;20379;-62
2022/07/13 11:10:42;;;;;;;4.50;2.10;;;;;;;;;;4877141;29;20121;-62
2022/07/13 11:13:12;;;;;;;4.72;1.98;;;;;;;;;;4878850;29;20463;-61
2022/07/13 11:16:17;;;;;;;3.03;1.92;;;;;;;;;;4877571;29;20359;-62
2022/07/13 11:18:42;;;;;;;2.70;2.10;;;;;;;;;;4877788;29;20044;-62
2022/07/13 11:21:14;;;;;;;6.97;2.10;;;;;;;;;;4877723;29;20033;-62
2022/07/13 11:26:53;;;;;;;4.07;2.10;;;;;;;;;;4878356;29;20051;-62
2022/07/13 11:30:04;;;;;;;4.38;2.10;;;;;;;;;;4878567;29;20037;-64
2022/07/13 11:32:30;;;;;;;8.63;2.28;;;;;;;;;;4877008;29;20502;-63
2022/07/13 11:34:56;;;;;;;4.85;2.25;;;;;;;;;;4877427;29;20661;-63
2022/07/13 11:37:22;;;;;;;3.63;2.20;;;;;;;;;;4878305;29;20065;-63
2022/07/13 11:39:48;;;;;;;7.95;2.40;;;;;;;;;;4876052;29;20066;-64
2022/07/13 11:42:13;;;;;;;8.20;2.40;;;;;;;;;;4877235;29;20037;-62
2022/07/13 11:44:40;;;;;;;8.05;2.60;;;;;;;;;;4877128;29;20116;-63
2022/07/13 11:47:08;;;;;;;5.18;2.60;;;;;;;;;;4877825;29;20040;-62
2022/07/13 11:49:46;;;;;;;6.05;2.65;;;;;;;;;;4877064;29;20037;-64
2022/07/13 11:52:25;;;;;;;6.60;3.05;;;;;;;;;;4878127;29;20409;-62
2022/07/13 11:55:11;;;;;;;6.63;3.10;;;;;;;;;;4877382;29;20029;-62
2022/07/13 11:57:37;;;;;;;5.43;2.70;;;;;;;;;;4877883;29;20052;-65
2022/07/13 12:00:05;;;;;;;8.35;2.70;;;;;;;;;;4877032;29;20036;-62
2022/07/13 12:02:31;;;;;;;4.47;2.67;;;;;;;;;;4878067;29;20466;-62
2022/07/13 12:04:56;;;;;;;4.38;2.60;;;;;;;;;;4877402;29;20084;-62
2022/07/13 12:07:24;;;;;;;3.97;2.63;;;;;;;;;;4884890;29;20466;-62
2022/07/13 12:10:05;;;;;;;5.68;2.75;;;;;;;;;;4881488;29;20120;-63
2022/07/13 12:12:33;;;;;;;4.30;2.65;;;;;;;;;;4869305;29;20101;-63
2022/07/13 12:14:59;;;;;;;9.32;3.17;;;;;;;;;;4874801;29;20044;-64
2022/07/13 12:17:26;;;;;;;5.30;2.75;;;;;;;;;;4880930;29;20044;-64
2022/07/13 12:19:52;;;;;;;5.18;2.75;;;;;;;;;;4889679;29;20036;-64
2022/07/13 12:22:22;;;;;;;5.50;2.67;;;;;;;;;;4893787;29;20432;-61
2022/07/13 12:24:48;;;;;;;4.90;3.05;;;;;;;;;;4874140;29;20060;-63
2022/07/13 12:27:28;;;;;;;8.65;2.75;;;;;;;;;;4881197;29;20064;-64
2022/07/13 12:30:07;;;;;;;3.17;2.60;;;;;;;;;;4869956;29;20121;-64
2022/07/13 12:32:33;;;;;;;8.50;2.85;;;;;;;;;;4895965;29;20064;-63
2022/07/13 12:34:58;;;;;;;6.90;3.00;;;;;;;;;;4881101;29;20765;-64
2022/07/13 12:37:37;;;;;;;5.70;2.85;;;;;;;;;;4892796;29;20051;-65
2022/07/13 12:40:04;;;;;;;5.95;3.08;;;;;;;;;;4899164;29;20044;-66
2022/07/13 12:42:29;;;;;;;7.78;2.90;;;;;;;;;;4881427;29;20041;-63
2022/07/13 12:44:55;;;;;;;7.18;3.03;;;;;;;;;;4888922;29;20055;-64
2022/07/13 12:47:24;;;;;;;7.97;2.72;;;;;;;;;;4889787;29;20173;-63
2022/07/13 12:49:50;;;;;;;5.43;3.10;;;;;;;;;;4894401;29;20074;-66
2022/07/13 12:52:19;;;;;;;6.53;2.78;;;;;;;;;;4886789;29;20459;-63
2022/07/13 12:54:53;;;;;;;4.50;2.50;;;;;;;;;;4882201;29;20399;-64
2022/07/13 12:57:19;;;;;;;3.75;2.45;;;;;;;;;;4882277;29;20393;-64
2022/07/13 12:59:57;;;;;;;7.57;2.70;;;;;;;;;;4880991;29;20515;-64
2022/07/13 13:02:23;;;;;;;5.13;2.30;;;;;;;;;;4880017;29;20033;-64
2022/07/13 13:04:48;;;;;;;3.83;2.30;;;;;;;;;;4894604;29;20389;-65
2022/07/13 13:07:14;;;;;;;5.03;2.30;;;;;;;;;;4894911;29;20046;-64
2022/07/13 13:09:39;;;;;;;4.60;2.25;;;;;;;;;;4880191;29;20037;-67
2022/07/13 13:12:05;;;;;;;5.93;2.40;;;;;;;;;;4880948;29;20060;-65
2022/07/13 13:14:30;;;;;;;4.05;2.20;;;;;;;;;;4884810;29;20056;-64
2022/07/13 13:16:56;;;;;;;3.33;2.42;;;;;;;;;;4896700;29;20052;-63
2022/07/13 13:19:21;;;;;;;3.33;2.35;;;;;;;;;;4884848;29;20037;-64
2022/07/13 13:21:46;;;;;;;9.75;3.38;;;;;;;;;;4862547;29;20460;-63
2022/07/13 13:24:12;;;;;;;4.68;2.97;;;;;;;;;;4887897;29;20029;-64
2022/07/13 13:26:44;;;;;;;7.18;2.53;;;;;;;;;;4887220;29;20036;-65
2022/07/13 13:31:53;;;;;;;6.20;2.40;;;;;;;;;;4876199;29;20048;-63
2022/07/13 13:34:19;;;;;;;5.38;2.50;;;;;;;;;;4882965;29;20028;-62
2022/07/13 13:36:44;;;;;;;4.32;2.40;;;;;;;;;;4897815;29;20572;-64
2022/07/13 13:39:09;;;;;;;5.97;2.60;;;;;;;;;;4881703;29;20041;-64
2022/07/13 13:41:35;;;;;;;3.00;2.40;;;;;;;;;;4879398;29;20033;-63
2022/07/13 13:44:01;;;;;;;4.38;2.40;;;;;;;;;;4880640;29;20466;-63
2022/07/13 13:46:26;;;;;;;6.07;2.60;;;;;;;;;;4875590;29;20040;-65
2022/07/13 13:48:51;;;;;;;5.15;2.53;;;;;;;;;;4880865;29;20037;-64
2022/07/13 13:51:17;;;;;;;4.22;2.50;;;;;;;;;;4887029;29;20064;-64
2022/07/13 13:53:42;;;;;;;4.82;2.70;;;;;;;;;;4897936;29;20084;-65
2022/07/13 13:56:08;;;;;;;4.30;2.47;;;;;;;;;;4888446;29;20391;-65
2022/07/13 13:58:33;;;;;;;5.95;2.60;;;;;;;;;;4877727;29;20489;-65
2022/07/13 14:00:58;;;;;;;4.57;2.67;;;;;;;;;;4890813;29;20230;-63
2022/07/13 14:03:24;;;;;;;4.03;2.50;;;;;;;;;;4886497;29;20031;-64
2022/07/13 14:05:49;;;;;;;7.95;2.92;;;;;;;;;;4895937;29;20067;-64
2022/07/13 14:08:15;;;;;;;3.88;2.30;;;;;;;;;;4891962;29;20473;-65
2022/07/13 14:10:42;;;;;;;4.50;2.60;;;;;;;;;;4888730;29;20044;-66
2022/07/13 14:13:07;;;;;;;3.67;2.40;;;;;;;;;;4886659;29;20032;-65
2022/07/13 14:15:32;;;;;;;2.97;2.30;;;;;;;;;;4891161;29;20090;-64
2022/07/13 14:17:58;;;;;;;8.05;2.40;;;;;;;;;;4878028;29;20025;-64
2022/07/13 14:20:24;;;;;;;6.05;2.53;;;;;;;;;;4897262;29;20084;-64
2022/07/13 14:22:49;;;;;;;3.55;2.30;;;;;;;;;;4875244;29;20042;-64
2022/07/13 14:25:15;;;;;;;6.95;2.65;;;;;;;;;;4898375;29;20378;-64
2022/07/13 14:27:41;;;;;;;4.70;2.58;;;;;;;;;;4882638;29;20474;-64
2022/07/13 14:30:07;;;;;;;4.72;2.40;;;;;;;;;;4889072;29;20533;-64
2022/07/13 14:32:32;;;;;;;4.55;2.65;;;;;;;;;;4876788;29;20037;-64
2022/07/13 14:34:58;;;;;;;5.75;2.65;;;;;;;;;;4888983;29;20032;-64
2022/07/13 14:37:24;;;;;;;8.90;3.15;;;;;;;;;;4884024;29;20037;-62
2022/07/13 14:39:50;;;;;;;12.45;3.00;;;;;;;;;;4876559;29;20037;-66
2022/07/13 14:42:16;;;;;;;7.32;3.28;;;;;;;;;;4878444;29;20063;-64
2022/07/13 14:44:41;;;;;;;4.72;2.88;;;;;;;;;;4884499;29;20513;-66
2022/07/13 14:47:07;;;;;;;6.10;2.67;;;;;;;;;;4897080;29;20041;-67
2022/07/13 14:49:33;;;;;;;5.38;2.90;;;;;;;;;;4886482;29;20108;-66
2022/07/13 14:51:58;;;;;;;4.80;2.70;;;;;;;;;;4877754;29;20679;-65
2022/07/13 14:54:24;;;;;;;6.35;2.90;;;;;;;;;;4880992;29;20539;-65